createdAt,value
2023-05-20T00:01:43.712Z,12.60
2023-05-20T00:04:11.795Z,12.50
2023-05-20T00:06:39.881Z,12.50
2023-05-20T00:09:07.850Z,12.50
2023-05-20T00:11:35.746Z,12.40
2023-05-20T00:14:03.661Z,12.30
2023-05-20T00:16:31.631Z,12.30
2023-05-20T00:19:00.992Z,12.30
2023-05-20T00:21:29.620Z,12.30
2023-05-20T00:23:57.503Z,12.20
2023-05-20T00:26:26.015Z,12.20
2023-05-20T00:28:53.909Z,12.20
2023-05-20T00:31:21.843Z,12.10
2023-05-20T00:33:49.929Z,12.00
2023-05-20T00:36:19.173Z,12.00
2023-05-20T00:38:47.059Z,11.70
2023-05-20T00:41:15.049Z,11.80
2023-05-20T00:43:42.940Z,11.80
2023-05-20T00:46:11.568Z,11.70
2023-05-20T00:48:42.220Z,11.70
2023-05-20T00:51:11.218Z,11.60
2023-05-20T00:53:40.990Z,11.50
2023-05-20T00:56:09.909Z,11.40
2023-05-20T00:58:38.902Z,11.20
2023-05-20T01:01:07.105Z,11.30
2023-05-20T01:03:35.828Z,11.20
2023-05-20T01:06:03.968Z,11.10
2023-05-20T01:08:32.244Z,11.10
2023-05-20T01:11:07.522Z,11.00
2023-05-20T01:13:41.037Z,11.20
2023-05-20T01:16:11.330Z,10.90
2023-05-20T01:18:42.508Z,10.70
2023-05-20T01:21:14.727Z,10.60
2023-05-20T01:23:44.412Z,10.70
2023-05-20T01:26:13.667Z,10.70
2023-05-20T01:28:43.586Z,10.60
2023-05-20T01:31:16.530Z,10.60
2023-05-20T01:33:44.843Z,10.40
2023-05-20T01:36:13.551Z,10.60
2023-05-20T01:38:43.826Z,10.20
2023-05-20T01:41:13.347Z,10.20
2023-05-20T01:43:41.822Z,10.10
2023-05-20T01:46:09.858Z,10.10
2023-05-20T01:48:38.247Z,10.00
2023-05-20T01:51:06.237Z,10.00
2023-05-20T01:53:34.141Z,9.90
2023-05-20T01:56:03.480Z,9.90
2023-05-20T01:58:31.377Z,9.70
2023-05-20T02:01:00.049Z,9.60
2023-05-20T02:03:28.063Z,9.50
2023-05-20T02:05:56.045Z,9.50
2023-05-20T02:08:23.930Z,9.50
2023-05-20T02:10:51.832Z,9.40
2023-05-20T02:13:21.104Z,9.50
2023-05-20T02:15:49.024Z,9.30
2023-05-20T02:18:18.653Z,9.30
2023-05-20T02:20:46.688Z,9.40
2023-05-20T02:23:14.650Z,9.20
2023-05-20T02:25:42.722Z,9.20
2023-05-20T02:28:11.246Z,9.20
2023-05-20T02:30:40.672Z,9.20
2023-05-20T02:33:09.762Z,9.10
2023-05-20T02:35:38.012Z,9.30
2023-05-20T02:38:05.920Z,9.10
2023-05-20T02:40:34.156Z,9.00
2023-05-20T02:43:02.590Z,8.90
2023-05-20T02:45:31.043Z,8.90
2023-05-20T02:48:00.815Z,8.90
2023-05-20T02:50:28.855Z,8.90
2023-05-20T02:52:57.425Z,9.20
2023-05-20T02:55:25.403Z,8.80
2023-05-20T02:57:53.527Z,9.00
2023-05-20T03:00:23.164Z,8.90
2023-05-20T03:02:51.121Z,9.00
2023-05-20T03:05:20.402Z,8.90
2023-05-20T03:07:48.799Z,9.00
2023-05-20T03:10:17.090Z,8.90
2023-05-20T03:12:44.974Z,8.90
2023-05-20T03:15:13.289Z,8.90
2023-05-20T03:17:41.219Z,8.90
2023-05-20T03:20:12.284Z,8.90
2023-05-20T03:22:41.536Z,8.90
2023-05-20T03:25:10.663Z,8.90
2023-05-20T03:27:38.547Z,8.90
2023-05-20T03:30:07.878Z,8.90
2023-05-20T03:32:35.812Z,8.90
2023-05-20T03:35:03.691Z,8.90
2023-05-20T03:37:31.600Z,8.90
2023-05-20T03:40:01.282Z,8.90
2023-05-20T03:42:29.171Z,8.90
2023-05-20T03:44:57.134Z,8.90
2023-05-20T03:47:25.162Z,8.90
2023-05-20T03:49:53.234Z,8.90
2023-05-20T03:52:21.186Z,8.90
2023-05-20T03:54:49.247Z,8.90
2023-05-20T03:57:19.654Z,8.80
2023-05-20T03:59:47.543Z,8.80
2023-05-20T04:02:15.737Z,8.80
2023-05-20T04:04:44.002Z,8.30
2023-05-20T04:07:11.939Z,8.70
2023-05-20T04:09:39.977Z,8.70
2023-05-20T04:12:08.309Z,8.70
2023-05-20T04:14:38.865Z,8.70
2023-05-20T04:17:07.042Z,8.70
2023-05-20T04:19:36.225Z,8.70
2023-05-20T04:22:04.110Z,8.90
2023-05-20T04:24:32.015Z,9.10
2023-05-20T04:26:59.901Z,8.70
2023-05-20T04:29:28.516Z,8.80
2023-05-20T04:31:58.713Z,8.80
2023-05-20T04:34:26.722Z,8.50
2023-05-20T04:36:54.883Z,8.90
2023-05-20T04:39:22.792Z,8.50
2023-05-20T04:41:51.023Z,9.00
2023-05-20T04:44:18.931Z,9.20
2023-05-20T04:46:47.008Z,9.20
2023-05-20T04:49:16.318Z,9.40
2023-05-20T04:51:44.228Z,10.20
2023-05-20T04:54:12.110Z,9.50
2023-05-20T04:56:40.373Z,9.60
2023-05-20T04:59:09.621Z,9.70
2023-05-20T05:01:37.676Z,9.70
2023-05-20T05:04:06.137Z,9.80
2023-05-20T05:06:35.376Z,9.90
2023-05-20T05:09:03.312Z,9.70
2023-05-20T05:11:31.678Z,10.00
2023-05-20T05:13:59.577Z,10.10
2023-05-20T05:16:27.624Z,11.00
2023-05-20T05:18:55.585Z,10.30
2023-05-20T05:21:23.475Z,10.40
2023-05-20T05:23:52.706Z,10.60
2023-05-20T05:26:20.938Z,10.90
2023-05-20T05:28:48.828Z,11.20
2023-05-20T05:31:16.677Z,11.40
2023-05-20T05:33:44.587Z,11.80
2023-05-20T05:36:12.533Z,12.20
2023-05-20T05:38:40.410Z,12.90
2023-05-20T05:41:09.683Z,13.60
2023-05-20T05:43:37.547Z,14.20
2023-05-20T05:46:05.920Z,14.60
2023-05-20T05:48:33.872Z,14.60
2023-05-20T05:51:01.783Z,14.50
2023-05-20T05:53:29.683Z,14.30
2023-05-20T05:55:57.579Z,14.10
2023-05-20T05:58:26.827Z,13.90
2023-05-20T06:00:55.001Z,13.90
2023-05-20T06:03:23.154Z,14.00
2023-05-20T06:05:51.189Z,14.00
2023-05-20T06:08:19.065Z,13.90
2023-05-20T06:10:49.894Z,13.80
2023-05-20T06:13:18.105Z,13.90
2023-05-20T06:15:47.334Z,14.10
2023-05-20T06:18:15.240Z,13.90
2023-05-20T06:20:43.166Z,14.60
2023-05-20T06:23:11.211Z,14.70
2023-05-20T06:25:39.121Z,15.50
2023-05-20T06:28:08.257Z,15.30
2023-05-20T06:30:36.173Z,15.00
2023-05-20T06:33:05.481Z,15.10
2023-05-20T06:35:35.017Z,15.40
2023-05-20T06:38:03.284Z,16.00
2023-05-20T06:40:31.212Z,16.70
2023-05-20T06:42:59.081Z,16.80
2023-05-20T06:45:27.030Z,18.10
2023-05-20T06:47:55.176Z,17.50
2023-05-20T06:50:25.013Z,18.80
2023-05-20T06:52:52.940Z,18.00
2023-05-20T06:55:21.006Z,18.40
2023-05-20T06:57:48.879Z,17.70
2023-05-20T07:00:17.089Z,18.30
2023-05-20T07:02:46.149Z,18.10
2023-05-20T07:05:14.129Z,18.60
2023-05-20T07:07:43.429Z,19.10
2023-05-20T07:10:11.625Z,19.00
2023-05-20T07:12:39.512Z,18.60
2023-05-20T07:15:08.684Z,19.10
2023-05-20T07:17:36.880Z,18.10
2023-05-20T07:20:05.865Z,18.70
2023-05-20T07:22:33.760Z,18.10
2023-05-20T07:25:03.256Z,18.60
2023-05-20T07:27:31.145Z,18.80
2023-05-20T07:29:59.012Z,18.80
2023-05-20T07:32:26.967Z,18.90
2023-05-20T07:34:54.871Z,17.60
2023-05-20T07:37:22.792Z,19.00
2023-05-20T07:39:50.864Z,18.90
2023-05-20T07:42:20.106Z,19.50
2023-05-20T07:44:48.021Z,19.40
2023-05-20T07:47:15.938Z,19.80
2023-05-20T07:49:44.388Z,19.30
2023-05-20T07:52:12.370Z,19.50
2023-05-20T07:54:40.242Z,19.30
2023-05-20T07:57:08.276Z,18.80
2023-05-20T07:59:37.615Z,19.00
2023-05-20T08:02:06.046Z,18.90
2023-05-20T08:04:35.026Z,19.10
2023-05-20T08:07:03.051Z,19.30
2023-05-20T08:09:32.657Z,19.10
2023-05-20T08:12:00.546Z,19.20
2023-05-20T08:14:28.459Z,19.90
2023-05-20T08:16:57.765Z,19.50
2023-05-20T08:19:25.766Z,19.60
2023-05-20T08:21:54.348Z,20.30
2023-05-20T08:24:22.742Z,19.50
2023-05-20T08:26:50.738Z,19.50
2023-05-20T08:29:18.780Z,19.90
2023-05-20T08:31:46.698Z,20.20
2023-05-20T08:34:16.176Z,20.00
2023-05-20T08:36:45.157Z,17.90
2023-05-20T08:39:13.100Z,20.20
2023-05-20T08:41:41.098Z,20.20
2023-05-20T08:44:10.919Z,20.20
2023-05-20T08:46:40.355Z,19.70
2023-05-20T08:49:08.683Z,20.40
2023-05-20T08:51:38.952Z,20.40
2023-05-20T08:54:08.655Z,20.40
2023-05-20T08:56:38.167Z,20.40
2023-05-20T08:59:06.430Z,20.20
2023-05-20T09:01:39.493Z,20.10
2023-05-20T09:04:07.815Z,20.50
2023-05-20T09:06:44.980Z,20.40
2023-05-20T09:09:13.662Z,20.60
2023-05-20T09:11:42.394Z,20.60
2023-05-20T09:14:10.429Z,20.80
2023-05-20T09:16:40.921Z,20.80
2023-05-20T09:19:09.842Z,20.30
2023-05-20T09:21:38.898Z,20.20
2023-05-20T09:24:08.529Z,19.70
2023-05-20T09:26:36.953Z,20.30
2023-05-20T09:29:05.048Z,20.10
2023-05-20T09:31:34.381Z,19.80
2023-05-20T09:34:03.025Z,18.90
2023-05-20T09:36:31.856Z,19.30
2023-05-20T09:39:05.079Z,19.60
2023-05-20T09:41:37.074Z,19.40
2023-05-20T09:44:06.652Z,19.40
2023-05-20T09:46:35.046Z,18.90
2023-05-20T09:49:06.706Z,18.70
2023-05-20T09:51:35.384Z,19.30
2023-05-20T09:54:04.939Z,19.60
2023-05-20T09:56:36.764Z,19.40
2023-05-20T09:59:06.706Z,19.90
2023-05-20T10:01:34.657Z,20.10
2023-05-20T10:04:05.098Z,19.70
2023-05-20T10:07:00.303Z,19.30
2023-05-20T10:09:46.826Z,19.50
2023-05-20T10:12:28.268Z,19.00
2023-05-20T10:15:05.543Z,19.40
2023-05-20T10:20:13.986Z,19.40
2023-05-20T10:22:41.904Z,19.50
2023-05-20T10:25:13.217Z,19.50
2023-05-20T10:27:46.717Z,18.90
2023-05-20T10:30:17.955Z,19.50
2023-05-20T10:32:53.442Z,19.60
2023-05-20T10:35:27.126Z,19.60
2023-05-20T10:37:56.358Z,19.30
2023-05-20T10:40:24.303Z,18.70
2023-05-20T10:42:54.613Z,19.20
2023-05-20T10:45:30.393Z,19.10
2023-05-20T10:47:59.494Z,19.00
2023-05-20T10:50:36.109Z,18.40
2023-05-20T10:53:06.975Z,18.60
2023-05-20T10:55:39.298Z,18.50
2023-05-20T10:58:08.924Z,18.30
2023-05-20T11:00:38.103Z,18.70
2023-05-20T11:03:07.990Z,18.60
2023-05-20T11:05:36.381Z,18.50
2023-05-20T11:08:13.718Z,18.50
2023-05-20T11:10:52.507Z,18.30
2023-05-20T11:13:21.986Z,18.70
2023-05-20T11:15:50.457Z,18.10
2023-05-20T11:18:19.084Z,18.40
2023-05-20T11:20:47.722Z,18.10
2023-05-20T11:23:16.386Z,18.30
2023-05-20T11:25:44.445Z,18.90
2023-05-20T11:28:14.745Z,19.00
2023-05-20T11:30:44.449Z,18.90
2023-05-20T11:33:14.213Z,19.20
2023-05-20T11:35:47.525Z,19.30
2023-05-20T11:38:15.923Z,18.50
2023-05-20T11:40:50.948Z,18.70
2023-05-20T11:43:20.631Z,19.10
2023-05-20T11:45:54.567Z,19.30
2023-05-20T11:48:22.814Z,19.40
2023-05-20T11:50:50.860Z,19.10
2023-05-20T11:53:19.762Z,19.50
2023-05-20T11:55:49.608Z,19.20
2023-05-20T11:58:18.221Z,19.20
2023-05-20T12:00:52.817Z,19.30
2023-05-20T12:03:26.588Z,19.80
2023-05-20T12:05:54.889Z,19.40
2023-05-20T12:08:22.877Z,19.70
2023-05-20T12:10:51.021Z,19.50
2023-05-20T12:13:19.463Z,19.40
2023-05-20T12:15:47.492Z,19.80
2023-05-20T12:18:15.492Z,19.60
2023-05-20T12:20:44.819Z,19.60
2023-05-20T12:23:12.730Z,19.70
2023-05-20T12:25:40.670Z,19.40
2023-05-20T12:28:09.725Z,19.60
2023-05-20T12:30:37.692Z,19.50
2023-05-20T12:33:06.394Z,19.90
2023-05-20T12:35:40.361Z,19.90
2023-05-20T12:38:09.970Z,20.10
2023-05-20T12:40:38.867Z,20.40
2023-05-20T12:43:07.556Z,20.20
2023-05-20T12:45:35.457Z,20.50
2023-05-20T12:48:03.711Z,20.60
2023-05-20T12:50:31.638Z,20.10
2023-05-20T12:52:59.492Z,20.40
2023-05-20T12:55:28.732Z,20.50
2023-05-20T12:57:57.109Z,20.30
2023-05-20T13:00:25.186Z,20.60
2023-05-20T13:02:53.332Z,20.60
2023-05-20T13:05:21.568Z,20.90
2023-05-20T13:07:49.949Z,20.90
2023-05-20T13:10:18.324Z,21.00
2023-05-20T13:12:47.666Z,21.10
2023-05-20T13:15:16.113Z,20.90
2023-05-20T13:17:44.148Z,20.70
2023-05-20T13:20:13.132Z,20.60
2023-05-20T13:22:41.012Z,20.40
2023-05-20T13:25:10.080Z,20.00
2023-05-20T13:27:37.973Z,20.40
2023-05-20T13:30:09.062Z,20.60
2023-05-20T13:32:37.018Z,20.80
2023-05-20T13:35:05.263Z,20.90
2023-05-20T13:37:33.183Z,20.70
2023-05-20T13:40:01.069Z,20.90
2023-05-20T13:42:28.961Z,20.90
2023-05-20T13:44:57.038Z,21.10
2023-05-20T13:47:26.378Z,21.00
2023-05-20T13:49:54.343Z,20.50
2023-05-20T13:52:22.268Z,20.50
2023-05-20T13:54:50.266Z,20.50
2023-05-20T13:57:18.255Z,20.60
2023-05-20T13:59:46.151Z,20.60
2023-05-20T14:02:14.139Z,20.20
2023-05-20T14:04:44.971Z,20.10
2023-05-20T14:07:13.000Z,19.80
2023-05-20T14:09:40.971Z,20.00
2023-05-20T14:12:09.222Z,20.00
2023-05-20T14:14:37.206Z,19.90
2023-05-20T14:17:05.570Z,20.10
2023-05-20T14:19:33.551Z,19.80
2023-05-20T14:22:03.288Z,20.00
2023-05-20T14:24:31.227Z,19.60
2023-05-20T14:26:59.109Z,19.80
2023-05-20T14:29:27.036Z,20.00
2023-05-20T14:31:54.989Z,20.00
2023-05-20T14:34:22.976Z,19.90
2023-05-20T14:36:50.913Z,20.20
2023-05-20T14:39:20.271Z,20.30
2023-05-20T14:41:48.205Z,20.20
2023-05-20T14:44:16.093Z,20.20
2023-05-20T14:46:44.112Z,20.50
2023-05-20T14:49:12.047Z,20.10
2023-05-20T14:51:40.070Z,20.20
2023-05-20T14:54:09.152Z,20.40
2023-05-20T14:56:38.701Z,20.20
2023-05-20T14:59:06.599Z,20.20
2023-05-20T15:01:34.930Z,20.30
2023-05-20T15:04:02.918Z,19.90
2023-05-20T15:06:31.886Z,19.90
2023-05-20T15:08:59.801Z,19.80
2023-05-20T15:11:27.677Z,19.90
2023-05-20T15:13:56.939Z,19.50
2023-05-20T15:16:25.423Z,19.80
2023-05-20T15:18:53.522Z,19.50
2023-05-20T15:21:21.427Z,19.30
2023-05-20T15:23:49.375Z,19.40
2023-05-20T15:26:17.437Z,19.20
2023-05-20T15:28:45.350Z,19.10
2023-05-20T15:31:14.689Z,18.80
2023-05-20T15:33:42.722Z,18.70
2023-05-20T15:36:10.802Z,18.60
2023-05-20T15:38:38.740Z,18.30
2023-05-20T15:41:07.926Z,18.10
2023-05-20T15:43:35.812Z,17.90
2023-05-20T15:46:03.726Z,18.10
2023-05-20T15:48:34.664Z,18.10
2023-05-20T15:51:02.641Z,18.00
2023-05-20T15:53:30.620Z,17.90
2023-05-20T15:55:58.531Z,17.90
2023-05-20T15:58:26.535Z,18.00
2023-05-20T16:00:54.409Z,17.80
2023-05-20T16:03:22.374Z,17.90
2023-05-20T16:05:51.704Z,18.00
2023-05-20T16:08:20.765Z,18.00
2023-05-20T16:10:48.653Z,17.60
2023-05-20T16:13:16.686Z,17.90
2023-05-20T16:15:44.609Z,17.90
2023-05-20T16:18:12.589Z,17.70
2023-05-20T16:20:40.581Z,17.90
2023-05-20T16:23:09.845Z,17.70
2023-05-20T16:25:37.817Z,17.70
2023-05-20T16:28:05.697Z,17.60
2023-05-20T16:30:33.914Z,17.40
2023-05-20T16:33:02.063Z,17.50
2023-05-20T16:35:29.995Z,17.50
2023-05-20T16:37:58.236Z,17.50
2023-05-20T16:40:27.536Z,17.80
2023-05-20T16:42:55.392Z,17.70
2023-05-20T16:45:23.525Z,17.60
2023-05-20T16:47:51.564Z,17.50
2023-05-20T16:50:19.576Z,17.60
2023-05-20T16:52:47.444Z,17.50
2023-05-20T16:55:15.504Z,17.80
2023-05-20T16:57:44.725Z,17.20
2023-05-20T17:00:13.235Z,17.30
2023-05-20T17:02:41.201Z,17.10
2023-05-20T17:05:10.061Z,17.30
2023-05-20T17:07:38.243Z,17.20
2023-05-20T17:10:06.946Z,17.30
2023-05-20T17:12:34.857Z,17.10
2023-05-20T17:15:06.024Z,17.50
2023-05-20T17:17:33.944Z,17.30
2023-05-20T17:20:03.575Z,17.80
2023-05-20T17:22:31.437Z,17.40
2023-05-20T17:24:59.396Z,17.20
2023-05-20T17:27:27.294Z,17.70
2023-05-20T17:29:55.231Z,17.50
2023-05-20T17:32:24.450Z,17.60
2023-05-20T17:34:52.321Z,17.50
2023-05-20T17:37:20.192Z,17.60
2023-05-20T17:39:48.182Z,17.30
2023-05-20T17:42:16.146Z,17.30
2023-05-20T17:44:43.996Z,17.10
2023-05-20T17:47:11.937Z,17.30
2023-05-20T17:49:41.234Z,17.40
2023-05-20T17:52:09.254Z,17.40
2023-05-20T17:54:37.107Z,17.40
2023-05-20T17:57:05.417Z,17.30
2023-05-20T17:59:36.607Z,16.90
2023-05-20T18:02:06.256Z,17.00
2023-05-20T18:04:34.354Z,16.80
2023-05-20T18:07:04.424Z,17.00
2023-05-20T18:09:32.334Z,17.20
2023-05-20T18:12:00.605Z,17.10
2023-05-20T18:14:28.478Z,16.80
2023-05-20T18:16:57.277Z,17.00
2023-05-20T18:19:25.476Z,16.80
2023-05-20T18:21:53.435Z,16.80
2023-05-20T18:24:22.671Z,16.70
2023-05-20T18:26:50.593Z,16.80
2023-05-20T18:29:18.567Z,16.40
2023-05-20T18:31:46.560Z,16.60
2023-05-20T18:34:16.151Z,16.70
2023-05-20T18:36:44.098Z,16.60
2023-05-20T18:39:13.954Z,16.90
2023-05-20T18:41:46.932Z,16.70
2023-05-20T18:44:15.512Z,16.70
2023-05-20T18:46:43.806Z,16.60
2023-05-20T18:49:11.760Z,16.60
2023-05-20T18:51:39.694Z,16.50
2023-05-20T18:54:07.686Z,16.50
2023-05-20T18:56:35.851Z,16.40
2023-05-20T18:59:05.137Z,16.30
2023-05-20T19:01:33.755Z,16.50
2023-05-20T19:04:01.918Z,16.30
2023-05-20T19:06:31.264Z,16.20
2023-05-20T19:09:00.657Z,16.30
2023-05-20T19:11:28.608Z,16.20
2023-05-20T19:13:57.660Z,16.60
2023-05-20T19:16:27.358Z,16.30
2023-05-20T19:18:55.273Z,16.20
2023-05-20T19:21:23.186Z,16.20
2023-05-20T19:23:51.212Z,16.10
2023-05-20T19:26:19.355Z,16.20
2023-05-20T19:28:47.275Z,16.00
2023-05-20T19:31:20.758Z,16.20
2023-05-20T19:33:50.642Z,15.90
2023-05-20T19:36:18.797Z,15.80
2023-05-20T19:38:46.749Z,15.80
2023-05-20T19:41:16.119Z,15.50
2023-05-20T19:43:44.015Z,15.70
2023-05-20T19:46:12.033Z,15.40
2023-05-20T19:48:39.969Z,15.50
2023-05-20T19:51:10.390Z,15.10
2023-05-20T19:53:38.952Z,15.10
2023-05-20T19:56:07.824Z,15.00
2023-05-20T19:58:35.705Z,14.80
2023-05-20T20:01:04.478Z,14.90
2023-05-20T20:03:33.957Z,14.70
2023-05-20T20:06:01.976Z,14.80
2023-05-20T20:08:31.446Z,14.90
2023-05-20T20:10:59.337Z,15.00
2023-05-20T20:13:27.232Z,14.70
2023-05-20T20:15:55.135Z,14.70
2023-05-20T20:18:23.096Z,14.60
2023-05-20T20:20:51.220Z,14.60
2023-05-20T20:23:19.101Z,15.00
2023-05-20T20:25:50.499Z,14.60
2023-05-20T20:28:18.567Z,14.70
2023-05-20T20:30:46.428Z,14.70
2023-05-20T20:33:14.326Z,14.60
2023-05-20T20:35:42.612Z,14.50
2023-05-20T20:38:10.503Z,14.40
2023-05-20T20:40:41.508Z,14.40
2023-05-20T20:43:20.493Z,14.50
2023-05-20T20:45:50.950Z,14.40
2023-05-20T20:48:19.064Z,14.40
2023-05-20T20:50:47.899Z,14.50
2023-05-20T20:53:17.070Z,14.40
2023-05-20T20:55:46.209Z,14.80
2023-05-20T20:58:15.802Z,14.60
2023-05-20T21:00:44.922Z,14.40
2023-05-20T21:03:13.273Z,14.40
2023-05-20T21:05:41.301Z,14.50
2023-05-20T21:08:09.880Z,14.40
2023-05-20T21:10:38.163Z,14.30
2023-05-20T21:13:06.065Z,14.60
2023-05-20T21:15:35.615Z,14.30
2023-05-20T21:18:03.915Z,14.50
2023-05-20T21:20:31.830Z,14.40
2023-05-20T21:22:59.714Z,14.40
2023-05-20T21:25:27.573Z,14.40
2023-05-20T21:27:55.545Z,14.50
2023-05-20T21:30:24.469Z,14.60
2023-05-20T21:32:53.732Z,14.30
2023-05-20T21:35:21.605Z,14.40
2023-05-20T21:37:49.898Z,14.50
2023-05-20T21:40:17.779Z,14.30
2023-05-20T21:42:45.673Z,14.20
2023-05-20T21:45:13.618Z,14.30
2023-05-20T21:47:41.652Z,14.30
2023-05-20T21:50:12.228Z,14.40
2023-05-20T21:52:40.707Z,14.20
2023-05-20T21:55:10.048Z,14.30
2023-05-20T21:57:38.161Z,13.90
2023-05-20T22:00:11.043Z,14.20
2023-05-20T22:02:39.141Z,14.10
2023-05-20T22:05:07.357Z,14.20
2023-05-20T22:07:36.623Z,14.00
2023-05-20T22:10:04.905Z,14.10
2023-05-20T22:12:35.780Z,14.10
2023-05-20T22:15:03.763Z,13.80
2023-05-20T22:17:33.873Z,13.80
2023-05-20T22:20:04.275Z,13.80
2023-05-20T22:22:32.363Z,13.80
2023-05-20T22:25:01.671Z,13.80
2023-05-20T22:27:29.602Z,14.20
2023-05-20T22:29:57.668Z,14.40
2023-05-20T22:32:25.793Z,14.00
2023-05-20T22:34:58.182Z,13.70
2023-05-20T22:37:28.690Z,13.40
2023-05-20T22:39:56.799Z,13.50
2023-05-20T22:42:26.131Z,13.40
2023-05-20T22:44:54.046Z,13.50
2023-05-20T22:47:21.948Z,13.40
2023-05-20T22:49:50.735Z,13.40
2023-05-20T22:52:18.788Z,13.30
2023-05-20T22:54:46.721Z,13.10
2023-05-20T22:57:14.646Z,13.70
2023-05-20T22:59:43.897Z,13.20
2023-05-20T23:02:11.776Z,13.20
2023-05-20T23:04:39.705Z,13.20
2023-05-20T23:07:07.666Z,13.20
2023-05-20T23:09:35.588Z,13.20
2023-05-20T23:12:03.586Z,13.30
2023-05-20T23:14:31.501Z,13.10
2023-05-20T23:17:00.994Z,13.20
2023-05-20T23:19:29.764Z,13.60
2023-05-20T23:21:57.967Z,13.00
2023-05-20T23:24:26.504Z,13.10
2023-05-20T23:26:54.506Z,13.10
2023-05-20T23:29:22.995Z,13.10
2023-05-20T23:31:51.181Z,13.10
2023-05-20T23:34:21.345Z,13.10
2023-05-20T23:36:49.969Z,13.00
2023-05-20T23:39:18.579Z,13.80
2023-05-20T23:41:46.504Z,13.00
2023-05-20T23:44:14.419Z,13.00
2023-05-20T23:46:42.700Z,12.90
2023-05-20T23:49:12.182Z,13.00
2023-05-20T23:51:41.410Z,12.90
2023-05-20T23:54:09.290Z,12.90
2023-05-20T23:56:37.206Z,13.20
2023-05-20T23:59:05.092Z,13.30
